EKVJ/STA METAR and TAF weather

Enter ICAO airport designator
Station Type Date Time Source
EKVJ METAR 2019/04/21 12:20 UTC NOAA

EKVJ 211220Z 26010KT CAVOK 17/03 Q1024


Station Type Date Time Source
EKVJ Decoded METAR 2019/04/21 12:20 UTC NOAA

Stauning Lufthavn, Denmark (EKVJ) 56-00N 008-21E 5M
Apr 21, 2019 - 08:20 AM EDT / 2019.04.21 1220 UTC
Wind: from the W (260 degrees) at 12 MPH (10 KT):0
Visibility: greater than 7 mile(s):0
Temperature: 62 F (17 C)
Dew Point: 37 F (3 C)
Relative Humidity: 39%
Pressure (altimeter): 30.24 in. Hg (1024 hPa)
ob: EKVJ 211220Z 26010KT CAVOK 17/03 Q1024
cycle: 12

Station Type Date Time Source
EKVJ TAF UTC NOAA

Error!

Example: see airport list